Aérodrome :
LOGIN :

S'inscrire | Disclaimer

   EN    FR    IT 

 










Légende :    VFR   VFR Marginal   IFR   IFR Intensif   IFR Très Intensif
Visi : 
Plafond : 
>= 8 km
>= 3000ft
5 à 8 km
1000 à 3000 ft
1500m à 5 km
500 à 1000 ft
800 à 1500m
200 à 500 ft
< 800m
< 200 ft
Symboles :   Orages  Brouillard  Fortes neiges  Fortes précipitations  Vent > 20 kt
SIGMETs :   Divers  Orages  Givrage  Turbulence  Onde Orograph.  Cendres Volcan.






- Altitude de l'aérodrome : 13 ft
- Code IATA : GOA


LIMJ - Genoa Cristoforo Colombo

DERNIER METAR :
  • 150220Z 04004KT 9999 SCT020 25/21 Q1012

METARs EXPIRÉS :
  • 150150Z 04004KT 9999 FEW015 SCT025 25/21 Q1012
  • 150120Z 06005KT 9999 SCT022 25/21 Q1012
  • 150050Z 06004KT 9999 FEW015 SCT030 25/21 Q1012
  • 150020Z 06004KT 9999 SCT035 25/21 Q1012
  • 142350Z 03003KT 330V100 9999 SCT030 26/21 Q1012

TAF TAF LIMJ
Valide du 15 à 00h jusqu'au 16 à 00h UTC


142300Z 1500/1524 VRB05KT 9999 SCT040
BECMG 1509/1511 17010KT
BECMG 1516/1518 VRB05KT



MET'MAP, la Météo Aéronautique d'un coup d'oeil ! - Copyright ORBIFLY Décembre 2007 - Disclaimer

ORBIFLY MET'MAP TEAM :

Programmation & Développement : Alexandra Zaïnal
Sur une idée originale de : Baudouin d'Aumeries
Assistance à la programmation : Marc-Olivier Méhu
Soutien technique & logistique : Manuel Goepfert

Contact : metmap@orbifly.com




SOURCES & CREDITS :

   NOAA